| time (UTC) | temp F | wind direction | speed knots | gust knots | rain 1hr in | rain 24hr in | rain mn in | humidity % | barometer mb |
| 20260507100047 | 56 | 0 | 0.0 | 1.7 | 0.00 | 0.00 | 0.00 | 60 | 1014.9 |
| 20260507094552 | 56 | 0 | 0.0 | 1.7 | 0.00 | 0.00 | 0.00 | 59 | 1015.0 |
| 20260507093054 | 57 | 0 | 0.0 | 1.7 | 0.00 | 0.00 | 0.00 | 61 | 1014.9 |
| 20260507091550 | 57 | 0 | 0.0 | 2.6 | 0.00 | 0.00 | 0.00 | 65 | 1014.9 |
| 20260507090044 | 58 | 92 | 0.9 | 2.6 | 0.00 | 0.00 | 0.00 | 66 | 1014.9 |
| 20260507084551 | 56 | 0 | 0.0 | 2.6 | 0.00 | 0.00 | 0.00 | 70 | 1014.9 |
| 20260507083044 | 56 | 109 | 0.9 | 3.5 | 0.00 | 0.00 | 0.00 | 74 | 1014.9 |
| 20260507081551 | 54 | 155 | 0.0 | 2.6 | 0.00 | 0.00 | 0.00 | 79 | 1014.7 |
| 20260507080049 | 51 | 0 | 0.0 | 2.6 | 0.00 | 0.00 | 0.00 | 87 | 1014.7 |
| 20260507074550 | 50 | 75 | 0.0 | 3.5 | 0.00 | 0.00 | 0.00 | 87 | 1014.7 |
| 20260507073050 | 48 | 0 | 0.0 | 2.6 | 0.00 | 0.00 | 0.00 | 89 | 1014.8 |
| 20260507071606 | 45 | 0 | 0.0 | 1.7 | 0.00 | 0.00 | 0.00 | 89 | 1014.6 |
| 20260507070048 | 43 | 0 | 0.0 | 2.6 | 0.00 | 0.00 | 0.00 | 89 | 1014.6 |
| 20260507064546 | 42 | 0 | 0.0 | 0.9 | 0.00 | 0.00 | 0.00 | 88 | 1014.6 |
| 20260507063046 | 40 | 0 | 0.0 | 1.7 | 0.00 | 0.00 | 0.00 | 87 | 1014.8 |
| 20260507061558 | 39 | 0 | 0.0 | 0.0 | 0.00 | 0.00 | 0.00 | 86 | 1014.7 |
| 20260507060056 | 38 | 0 | 0.0 | 0.0 | 0.00 | 0.00 | 0.00 | 86 | 1014.5 |
| 20260507054546 | 38 | 0 | 0.0 | 0.9 | 0.00 | 0.00 | 0.00 | 86 | 1014.5 |
| 20260507053115 | 38 | 0 | 0.0 | 0.9 | 0.00 | 0.00 | 0.00 | 85 | 1014.4 |
| 20260507051550 | 38 | 0 | 0.0 | 0.9 | 0.00 | 0.00 | 0.00 | 85 | 1014.1 |
| 20260507050046 | 38 | 0 | 0.0 | 0.9 | 0.00 | 0.00 | 0.00 | 84 | 1014.1 |
| 20260507044556 | 38 | 0 | 0.0 | 0.9 | 0.00 | 0.00 | 0.00 | 84 | 1014.0 |
| 20260507043051 | 39 | 0 | 0.0 | 0.9 | 0.00 | 0.00 | 0.00 | 84 | 1013.9 |
| 20260507041547 | 39 | 0 | 0.0 | 0.9 | 0.00 | 0.00 | 0.00 | 84 | 1014.0 |
| 20260507040055 | 39 | 0 | 0.0 | 0.0 | 0.00 | 0.00 | 0.00 | 84 | 1014.2 |
| 20260507034551 | 40 | 0 | 0.0 | 0.0 | 0.00 | 0.00 | 0.00 | 84 | 1014.1 |
| 20260507033052 | 40 | 0 | 0.0 | 0.0 | 0.00 | 0.00 | 0.00 | 83 | 1014.1 |
| 20260507031554 | 40 | 0 | 0.0 | 0.0 | 0.00 | 0.00 | 0.00 | 83 | 1014.2 |
| 20260507030053 | 40 | 0 | 0.0 | 0.0 | 0.00 | 0.00 | 0.00 | 83 | 1014.1 |
| 20260507024601 | 41 | 0 | 0.0 | 0.0 | 0.00 | 0.00 | 0.00 | 83 | 1014.0 |
| 20260507023044 | 41 | 0 | 0.0 | 0.0 | 0.00 | 0.00 | 0.00 | 82 | 1014.1 |
| 20260507021545 | 41 | 0 | 0.0 | 0.0 | 0.00 | 0.00 | 0.00 | 82 | 1013.9 |
| 20260507020049 | 42 | 0 | 0.0 | 0.0 | 0.00 | 0.00 | 0.00 | 82 | 1013.8 |
| 20260507014602 | 42 | 0 | 0.0 | 0.0 | 0.00 | 0.00 | 0.00 | 81 | 1013.7 |
| 20260507013048 | 42 | 0 | 0.0 | 0.0 | 0.00 | 0.00 | 0.00 | 81 | 1013.7 |
| 20260507011551 | 43 | 0 | 0.0 | 0.0 | 0.00 | 0.00 | 0.00 | 80 | 1013.8 |
| 20260507004601 | 44 | 0 | 0.0 | 0.0 | 0.00 | 0.00 | 0.00 | 79 | 1013.7 |
| 20260507003054 | 45 | 0 | 0.0 | 0.0 | 0.00 | 0.00 | 0.00 | 78 | 1013.8 |
| 20260507001556 | 45 | 0 | 0.0 | 0.9 | 0.00 | 0.00 | 0.00 | 77 | 1014.0 |
| 20260507000059 | 46 | 0 | 0.0 | 0.0 | 0.00 | 0.00 | 0.00 | 76 | 1014.1 |
| 20260506234554 | 47 | 0 | 0.0 | 1.7 | 0.00 | 0.00 | 0.00 | 75 | 1014.0 |
| 20260506233059 | 48 | 0 | 0.0 | 0.0 | 0.00 | 0.00 | 0.00 | 74 | 1013.7 |
| 20260506231553 | 48 | 0 | 0.0 | 0.0 | 0.00 | 0.00 | 0.00 | 74 | 1013.7 |
| 20260506230058 | 49 | 0 | 0.0 | 0.0 | 0.00 | 0.00 | 0.00 | 73 | 1013.8 |
| 20260506224552 | 49 | 0 | 0.0 | 1.7 | 0.00 | 0.00 | 0.00 | 73 | 1013.7 |
| 20260506223051 | 50 | 346 | 0.0 | 0.9 | 0.00 | 0.00 | 0.00 | 72 | 1013.8 |
| 20260506221552 | 50 | 0 | 0.0 | 1.7 | 0.00 | 0.00 | 0.00 | 72 | 1013.7 |
| 20260506220048 | 51 | 0 | 0.0 | 2.6 | 0.00 | 0.00 | 0.00 | 71 | 1013.6 |
| 20260506214601 | 51 | 0 | 0.0 | 2.6 | 0.00 | 0.00 | 0.00 | 71 | 1013.6 |
| 20260506213047 | 52 | 0 | 0.0 | 2.6 | 0.00 | 0.00 | 0.00 | 70 | 1013.6 |
| 20260506211548 | 52 | 0 | 0.0 | 2.6 | 0.00 | 0.00 | 0.00 | 69 | 1013.5 |
| 20260506210049 | 52 | 324 | 0.9 | 2.6 | 0.00 | 0.00 | 0.00 | 68 | 1013.4 |
| 20260506204552 | 52 | 38 | 0.0 | 2.6 | 0.00 | 0.00 | 0.00 | 67 | 1013.3 |
| 20260506203043 | 53 | 309 | 0.0 | 4.3 | 0.00 | 0.00 | 0.00 | 66 | 1013.1 |
| 20260506201549 | 53 | 0 | 0.9 | 4.3 | 0.00 | 0.00 | 0.00 | 64 | 1012.8 |
| 20260506200055 | 53 | 0 | 0.0 | 4.3 | 0.00 | 0.00 | 0.00 | 61 | 1012.8 |
| 20260506194551 | 54 | 0 | 0.0 | 3.5 | 0.00 | 0.00 | 0.00 | 61 | 1012.7 |
| 20260506193054 | 54 | 0 | 0.0 | 1.7 | 0.00 | 0.00 | 0.00 | 61 | 1012.6 |
| 20260506191607 | 54 | 0 | 0.0 | 1.7 | 0.00 | 0.00 | 0.00 | 61 | 1012.5 |
| 20260506190055 | 54 | 71 | 0.0 | 2.6 | 0.00 | 0.00 | 0.00 | 62 | 1012.4 |
| 20260506184552 | 55 | 332 | 0.0 | 1.7 | 0.00 | 0.00 | 0.00 | 62 | 1012.3 |
| 20260506183053 | 55 | 332 | 0.0 | 1.7 | 0.00 | 0.00 | 0.00 | 62 | 1012.3 |
| 20260506181558 | 55 | 327 | 0.0 | 3.5 | 0.00 | 0.00 | 0.00 | 60 | 1012.2 |
| 20260506180113 | 56 | 0 | 0.0 | 2.6 | 0.00 | 0.00 | 0.00 | 59 | 1012.1 |
| 20260506174552 | 56 | 94 | 0.0 | 2.6 | 0.00 | 0.00 | 0.00 | 59 | 1011.8 |
| 20260506173129 | 57 | 333 | 0.9 | 3.5 | 0.00 | 0.00 | 0.00 | 59 | 1011.9 |
| 20260506171558 | 57 | 0 | 0.0 | 2.6 | 0.00 | 0.00 | 0.00 | 59 | 1011.9 |
| 20260506170050 | 57 | 0 | 0.0 | 3.5 | 0.00 | 0.00 | 0.00 | 59 | 1011.8 |
| 20260506164556 | 57 | 5 | 0.9 | 5.2 | 0.00 | 0.00 | 0.00 | 58 | 1011.8 |
| 20260506163059 | 58 | 90 | 0.9 | 4.3 | 0.00 | 0.00 | 0.00 | 56 | 1011.9 |
| 20260506161555 | 60 | 327 | 0.9 | 4.3 | 0.00 | 0.00 | 0.00 | 53 | 1012.0 |
| 20260506160053 | 59 | 360 | 0.9 | 4.3 | 0.00 | 0.00 | 0.00 | 55 | 1011.9 |
| 20260506154555 | 60 | 321 | 0.9 | 3.5 | 0.00 | 0.00 | 0.00 | 54 | 1011.9 |
| 20260506153056 | 59 | 344 | 0.9 | 7.8 | 0.00 | 0.00 | 0.00 | 56 | 1011.9 |
| 20260506151552 | 60 | 0 | 0.9 | 4.3 | 0.00 | 0.00 | 0.00 | 55 | 1011.9 |
| 20260506150057 | 57 | 309 | 2.6 | 5.2 | 0.00 | 0.00 | 0.00 | 59 | 1011.9 |
| 20260506144604 | 58 | 85 | 0.9 | 6.1 | 0.00 | 0.00 | 0.00 | 57 | 1011.9 |
| 20260506143056 | 59 | 134 | 1.7 | 7.0 | 0.00 | 0.00 | 0.00 | 57 | 1011.8 |
| 20260506141553 | 60 | 326 | 1.7 | 7.8 | 0.00 | 0.00 | 0.00 | 56 | 1011.9 |
| 20260506140054 | 59 | 333 | 0.9 | 4.3 | 0.00 | 0.00 | 0.00 | 59 | 1012.0 |
| 20260506134555 | 57 | 355 | 0.9 | 7.0 | 0.00 | 0.00 | 0.00 | 59 | 1011.9 |
| 20260506133057 | 59 | 309 | 0.9 | 7.8 | 0.00 | 0.00 | 0.00 | 57 | 1011.9 |
| 20260506131552 | 59 | 345 | 1.7 | 7.0 | 0.00 | 0.00 | 0.00 | 57 | 1011.9 |
| 20260506130057 | 60 | 304 | 1.7 | 11.3 | 0.00 | 0.00 | 0.00 | 52 | 1011.8 |
| 20260506124551 | 60 | 59 | 1.7 | 6.1 | 0.00 | 0.00 | 0.00 | 54 | 1011.8 |
| 20260506123054 | 58 | 15 | 1.7 | 7.0 | 0.00 | 0.00 | 0.00 | 53 | 1011.7 |
| 20260506121555 | 59 | 220 | 0.9 | 7.8 | 0.00 | 0.00 | 0.00 | 57 | 1011.8 |
| 20260506120053 | 58 | 41 | 1.7 | 7.0 | 0.00 | 0.00 | 0.00 | 55 | 1011.9 |
| 20260506114555 | 59 | 331 | 0.9 | 8.7 | 0.00 | 0.00 | 0.00 | 53 | 1011.9 |
| 20260506113054 | 58 | 316 | 0.9 | 7.0 | 0.00 | 0.00 | 0.00 | 55 | 1012.0 |
| 20260506111557 | 57 | 18 | 1.7 | 8.7 | 0.00 | 0.00 | 0.00 | 55 | 1012.0 |
| 20260506110051 | 56 | 5 | 2.6 | 7.8 | 0.00 | 0.00 | 0.00 | 56 | 1011.9 |
| 20260506104557 | 56 | 0 | 2.6 | 7.8 | 0.00 | 0.00 | 0.00 | 56 | 1011.9 |
| 20260506103051 | 58 | 70 | 1.7 | 7.8 | 0.00 | 0.00 | 0.00 | 60 | 1011.8 |
| 20260506101553 | 56 | 5 | 1.7 | 7.8 | 0.00 | 0.00 | 0.00 | 63 | 1011.8 |